Aérodrome :







RETROUVEZ-NOUS SUR...

 
LOGIN :

S'inscrire | Disclaimer

   EN    FR    IT 

 









Légende :    VFR   VFR Marginal   IFR   IFR Intensif   IFR Très Intensif
Visi : 
Plafond : 
>= 8 km
>= 3000ft
5 à 8 km
1000 à 3000 ft
1500m à 5 km
500 à 1000 ft
800 à 1500m
200 à 500 ft
< 800m
< 200 ft
Symboles :   Orages  Brouillard  Fortes neiges  Fortes précipitations  Vent > 20 kt






- Altitude de l'aérodrome : 488 ft
- Code IATA : EEN


KEEN - Dillant Hopkins

DERNIER METAR :
  • 242056Z AUTO 20007KT 10SM CLR 13/M03 A2991 RMK AO2 SLP136 T01331028 56014 $

METARs EXPIRÉS :
  • 241956Z AUTO 20010KT 10SM CLR 13/M03 A2992 RMK AO2 SLP140 T01281028 $
  • 241856Z AUTO 20007KT 10SM CLR 13/M05 A2993 RMK AO2 SLP142 T01331050 $

TAF N/A



MET'MAP, la Météo Aéronautique d'un coup d'oeil ! - Copyright ORBIFLY Décembre 2007 - Disclaimer

ORBIFLY MET'MAP TEAM :

Programmation & Développement : Alexandra Zaïnal
Sur une idée originale de : Baudouin d'Aumeries
Assistance à la programmation : Marc-Olivier Méhu
Soutien technique & logistique : Manuel Goepfert

Contact : metmap@orbifly.com




SOURCES & CREDITS :

   NOAA